sensor_id;sensor_type;location;lat;lon;timestamp;pressure;altitude;pressure_sealevel;temperature;humidity
57572;BME280;44459;43.522;24.470;2023-06-10T00:01:56;99674.66;;;17.59;90.00
57572;BME280;44459;43.522;24.470;2023-06-10T00:04:27;99677.34;;;17.58;90.50
57572;BME280;44459;43.522;24.470;2023-06-10T00:06:53;99683.63;;;17.55;90.86
57572;BME280;44459;43.522;24.470;2023-06-10T00:09:19;99690.81;;;17.53;91.30
57572;BME280;44459;43.522;24.470;2023-06-10T00:11:46;99692.56;;;17.54;92.31
57572;BME280;44459;43.522;24.470;2023-06-10T00:14:12;99675.00;;;17.46;92.52
57572;BME280;44459;43.522;24.470;2023-06-10T00:16:37;99685.78;;;17.43;91.88
57572;BME280;44459;43.522;24.470;2023-06-10T00:19:04;99693.06;;;17.38;91.91
57572;BME280;44459;43.522;24.470;2023-06-10T00:21:31;99692.16;;;17.39;92.75
57572;BME280;44459;43.522;24.470;2023-06-10T00:24:07;99698.41;;;17.38;93.88
57572;BME280;44459;43.522;24.470;2023-06-10T00:26:37;99690.50;;;17.35;94.53
57572;BME280;44459;43.522;24.470;2023-06-10T00:29:03;99689.84;;;17.27;94.50
57572;BME280;44459;43.522;24.470;2023-06-10T00:31:28;99696.06;;;17.27;94.77
57572;BME280;44459;43.522;24.470;2023-06-10T00:33:53;99698.72;;;17.27;95.27
57572;BME280;44459;43.522;24.470;2023-06-10T00:36:20;99698.75;;;17.26;95.85
57572;BME280;44459;43.522;24.470;2023-06-10T00:38:46;99706.84;;;17.24;95.67
57572;BME280;44459;43.522;24.470;2023-06-10T00:41:11;99705.06;;;17.23;96.15
57572;BME280;44459;43.522;24.470;2023-06-10T00:43:37;99695.31;;;17.22;97.32
57572;BME280;44459;43.522;24.470;2023-06-10T00:46:02;99691.84;;;17.19;97.50
57572;BME280;44459;43.522;24.470;2023-06-10T00:48:28;99686.53;;;17.19;98.11
57572;BME280;44459;43.522;24.470;2023-06-10T00:50:54;99692.84;;;17.16;98.28
57572;BME280;44459;43.522;24.470;2023-06-10T00:53:21;99699.03;;;17.17;98.92
57572;BME280;44459;43.522;24.470;2023-06-10T00:55:47;99700.91;;;17.15;99.25
57572;BME280;44459;43.522;24.470;2023-06-10T00:58:13;99701.94;;;17.09;99.53
57572;BME280;44459;43.522;24.470;2023-06-10T01:00:38;99704.66;;;17.07;99.45
57572;BME280;44459;43.522;24.470;2023-06-10T01:03:04;99697.66;;;17.03;99.92
57572;BME280;44459;43.522;24.470;2023-06-10T01:05:34;99711.81;;;17.05;100.00
57572;BME280;44459;43.522;24.470;2023-06-10T01:10:50;99704.81;;;17.01;100.00
57572;BME280;44459;43.522;24.470;2023-06-10T01:13:17;99717.31;;;16.99;100.00
57572;BME280;44459;43.522;24.470;2023-06-10T01:15:43;99707.66;;;16.95;100.00
57572;BME280;44459;43.522;24.470;2023-06-10T01:18:10;99712.09;;;16.96;100.00
57572;BME280;44459;43.522;24.470;2023-06-10T01:20:41;99715.66;;;16.95;100.00
57572;BME280;44459;43.522;24.470;2023-06-10T01:23:09;99698.91;;;16.90;100.00
57572;BME280;44459;43.522;24.470;2023-06-10T01:25:39;99704.22;;;16.90;100.00
57572;BME280;44459;43.522;24.470;2023-06-10T01:33:51;99702.53;;;16.88;100.00
57572;BME280;44459;43.522;24.470;2023-06-10T01:36:19;99704.31;;;16.87;100.00
57572;BME280;44459;43.522;24.470;2023-06-10T01:38:47;99694.63;;;16.85;100.00
57572;BME280;44459;43.522;24.470;2023-06-10T01:41:16;99701.66;;;16.87;100.00
57572;BME280;44459;43.522;24.470;2023-06-10T01:43:45;99692.94;;;16.82;100.00
57572;BME280;44459;43.522;24.470;2023-06-10T01:46:11;99707.94;;;16.86;100.00
57572;BME280;44459;43.522;24.470;2023-06-10T01:48:41;99703.50;;;16.85;100.00
57572;BME280;44459;43.522;24.470;2023-06-10T01:51:06;99701.91;;;16.78;100.00
57572;BME280;44459;43.522;24.470;2023-06-10T01:53:32;99700.31;;;16.73;100.00
57572;BME280;44459;43.522;24.470;2023-06-10T01:55:57;99694.09;;;16.72;100.00
57572;BME280;44459;43.522;24.470;2023-06-10T01:58:23;99704.88;;;16.68;100.00
57572;BME280;44459;43.522;24.470;2023-06-10T02:00:48;99698.66;;;16.69;100.00
57572;BME280;44459;43.522;24.470;2023-06-10T02:03:13;99704.91;;;16.66;100.00
57572;BME280;44459;43.522;24.470;2023-06-10T02:05:39;99707.53;;;16.68;100.00
57572;BME280;44459;43.522;24.470;2023-06-10T02:08:05;99705.06;;;16.60;100.00
57572;BME280;44459;43.522;24.470;2023-06-10T02:10:30;99713.94;;;16.62;100.00
57572;BME280;44459;43.522;24.470;2023-06-10T02:12:56;99702.41;;;16.60;100.00
57572;BME280;44459;43.522;24.470;2023-06-10T02:15:21;99715.66;;;16.63;100.00
57572;BME280;44459;43.522;24.470;2023-06-10T02:17:47;99714.75;;;16.64;100.00
57572;BME280;44459;43.522;24.470;2023-06-10T02:20:14;99716.53;;;16.64;100.00
57572;BME280;44459;43.522;24.470;2023-06-10T02:22:39;99713.06;;;16.62;100.00
57572;BME280;44459;43.522;24.470;2023-06-10T02:25:05;99710.47;;;16.58;100.00
57572;BME280;44459;43.522;24.470;2023-06-10T02:27:31;99714.75;;;16.64;100.00
57572;BME280;44459;43.522;24.470;2023-06-10T02:29:57;99710.28;;;16.65;100.00
57572;BME280;44459;43.522;24.470;2023-06-10T02:32:22;99709.41;;;16.64;100.00
57572;BME280;44459;43.522;24.470;2023-06-10T02:34:48;99703.28;;;16.62;100.00
57572;BME280;44459;43.522;24.470;2023-06-10T02:37:16;99705.84;;;16.65;100.00
57572;BME280;44459;43.522;24.470;2023-06-10T02:39:42;99710.28;;;16.65;100.00
57572;BME280;44459;43.522;24.470;2023-06-10T02:42:08;99709.41;;;16.64;100.00
57572;BME280;44459;43.522;24.470;2023-06-10T02:44:33;99707.53;;;16.68;100.00
57572;BME280;44459;43.522;24.470;2023-06-10T02:46:59;99711.13;;;16.67;100.00
57572;BME280;44459;43.522;24.470;2023-06-10T02:49:25;99712.09;;;16.64;100.00
57572;BME280;44459;43.522;24.470;2023-06-10T02:51:53;99720.06;;;16.66;100.00
57572;BME280;44459;43.522;24.470;2023-06-10T02:54:19;99719.16;;;16.65;100.00
57572;BME280;44459;43.522;24.470;2023-06-10T02:56:45;99717.38;;;16.66;100.00
57572;BME280;44459;43.522;24.470;2023-06-10T02:59:13;99715.53;;;16.68;100.00
57572;BME280;44459;43.522;24.470;2023-06-10T03:01:38;99712.75;;;16.72;100.00
57572;BME280;44459;43.522;24.470;2023-06-10T03:04:05;99710.13;;;16.71;100.00
57572;BME280;44459;43.522;24.470;2023-06-10T03:06:31;99726.72;;;16.80;100.00
57572;BME280;44459;43.522;24.470;2023-06-10T03:08:58;99717.84;;;16.81;100.00
57572;BME280;44459;43.522;24.470;2023-06-10T03:11:23;99718.69;;;16.83;100.00
57572;BME280;44459;43.522;24.470;2023-06-10T03:13:50;99713.28;;;16.85;100.00
57572;BME280;44459;43.522;24.470;2023-06-10T03:16:16;99719.41;;;16.88;100.00
57572;BME280;44459;43.522;24.470;2023-06-10T03:18:41;99726.34;;;16.94;100.00
57572;BME280;44459;43.522;24.470;2023-06-10T03:21:07;99728.09;;;16.96;100.00
57572;BME280;44459;43.522;24.470;2023-06-10T03:23:33;99727.13;;;16.97;100.00
57572;BME280;44459;43.522;24.470;2023-06-10T03:25:59;99724.44;;;16.99;100.00
57572;BME280;44459;43.522;24.470;2023-06-10T03:28:25;99726.94;;;17.05;100.00
57572;BME280;44459;43.522;24.470;2023-06-10T03:30:51;99729.56;;;17.06;100.00
57572;BME280;44459;43.522;24.470;2023-06-10T03:33:17;99718.06;;;17.04;100.00
57572;BME280;44459;43.522;24.470;2023-06-10T03:35:42;99723.34;;;17.06;100.00
57572;BME280;44459;43.522;24.470;2023-06-10T03:38:07;99728.50;;;17.12;100.00
57572;BME280;44459;43.522;24.470;2023-06-10T03:40:33;99729.34;;;17.14;100.00
57572;BME280;44459;43.522;24.470;2023-06-10T03:43:00;99727.41;;;17.19;100.00
57572;BME280;44459;43.522;24.470;2023-06-10T03:45:25;99738.78;;;17.26;100.00
57572;BME280;44459;43.522;24.470;2023-06-10T03:47:53;99731.56;;;17.29;100.00
57572;BME280;44459;43.522;24.470;2023-06-10T03:50:19;99732.41;;;17.31;100.00
57572;BME280;44459;43.522;24.470;2023-06-10T03:52:44;99734.88;;;17.37;100.00
57572;BME280;44459;43.522;24.470;2023-06-10T03:55:10;99734.84;;;17.39;100.00
57572;BME280;44459;43.522;24.470;2023-06-10T03:57:39;99733.81;;;17.43;100.00
57572;BME280;44459;43.522;24.470;2023-06-10T04:00:05;99728.38;;;17.46;100.00
57572;BME280;44459;43.522;24.470;2023-06-10T04:02:37;99741.50;;;17.53;100.00
57572;BME280;44459;43.522;24.470;2023-06-10T04:05:02;99731.72;;;17.54;100.00
57572;BME280;44459;43.522;24.470;2023-06-10T04:07:28;99728.94;;;17.58;100.00
57572;BME280;44459;43.522;24.470;2023-06-10T04:09:54;99741.19;;;17.66;100.00
57572;BME280;44459;43.522;24.470;2023-06-10T04:12:19;99738.47;;;17.67;100.00
57572;BME280;44459;43.522;24.470;2023-06-10T04:14:45;99738.34;;;17.70;100.00
57572;BME280;44459;43.522;24.470;2023-06-10T04:17:10;99747.00;;;17.78;100.00
57572;BME280;44459;43.522;24.470;2023-06-10T04:19:36;99738.97;;;17.80;100.00
57572;BME280;44459;43.522;24.470;2023-06-10T04:22:01;99743.31;;;17.84;100.00
57572;BME280;44459;43.522;24.470;2023-06-10T04:24:30;99757.03;;;17.99;100.00
57572;BME280;44459;43.522;24.470;2023-06-10T04:26:56;99759.50;;;18.05;100.00
57572;BME280;44459;43.522;24.470;2023-06-10T04:29:21;99760.16;;;18.12;100.00
57572;BME280;44459;43.522;24.470;2023-06-10T04:31:47;99758.22;;;18.19;100.00
57572;BME280;44459;43.522;24.470;2023-06-10T04:34:12;99755.38;;;18.23;100.00
57572;BME280;44459;43.522;24.470;2023-06-10T04:36:38;99749.81;;;18.29;100.00
57572;BME280;44459;43.522;24.470;2023-06-10T04:39:04;99756.63;;;18.39;100.00
57572;BME280;44459;43.522;24.470;2023-06-10T04:41:31;99756.31;;;18.48;100.00
57572;BME280;44459;43.522;24.470;2023-06-10T04:43:56;99756.97;;;18.56;100.00
57572;BME280;44459;43.522;24.470;2023-06-10T04:46:23;99747.03;;;18.60;100.00
57572;BME280;44459;43.522;24.470;2023-06-10T04:48:49;99745.91;;;18.67;100.00
57572;BME280;44459;43.522;24.470;2023-06-10T04:51:14;99756.28;;;18.76;100.00
57572;BME280;44459;43.522;24.470;2023-06-10T04:53:40;99749.00;;;18.80;100.00
57572;BME280;44459;43.522;24.470;2023-06-10T04:56:07;99750.47;;;18.88;100.00
57572;BME280;44459;43.522;24.470;2023-06-10T04:58:33;99744.31;;;18.86;100.00
57572;BME280;44459;43.522;24.470;2023-06-10T05:00:58;99753.88;;;18.93;100.00
57572;BME280;44459;43.522;24.470;2023-06-10T05:03:25;99745.75;;;18.96;100.00
57572;BME280;44459;43.522;24.470;2023-06-10T05:05:50;99751.94;;;18.98;100.00
57572;BME280;44459;43.522;24.470;2023-06-10T05:08:16;99754.47;;;19.01;100.00
57572;BME280;44459;43.522;24.470;2023-06-10T05:10:41;99753.38;;;19.07;100.00
57572;BME280;44459;43.522;24.470;2023-06-10T05:13:07;99755.19;;;19.06;100.00
57572;BME280;44459;43.522;24.470;2023-06-10T05:15:32;99755.06;;;19.09;100.00
57572;BME280;44459;43.522;24.470;2023-06-10T05:17:58;99769.16;;;19.15;100.00
57572;BME280;44459;43.522;24.470;2023-06-10T05:20:24;99762.97;;;19.13;100.00
57572;BME280;44459;43.522;24.470;2023-06-10T05:22:50;99770.81;;;19.19;100.00
57572;BME280;44459;43.522;24.470;2023-06-10T05:25:16;99765.44;;;19.19;100.00
57572;BME280;44459;43.522;24.470;2023-06-10T05:27:42;99760.97;;;19.19;100.00
57572;BME280;44459;43.522;24.470;2023-06-10T05:30:09;99768.88;;;19.22;100.00
57572;BME280;44459;43.522;24.470;2023-06-10T05:32:35;99762.50;;;19.26;100.00
57572;BME280;44459;43.522;24.470;2023-06-10T05:35:00;99766.09;;;19.25;100.00
57572;BME280;44459;43.522;24.470;2023-06-10T05:37:26;99764.22;;;19.27;100.00
57572;BME280;44459;43.522;24.470;2023-06-10T05:39:52;99761.50;;;19.29;100.00
57572;BME280;44459;43.522;24.470;2023-06-10T05:42:17;99763.06;;;19.34;100.00
57572;BME280;44459;43.522;24.470;2023-06-10T05:44:43;99755.81;;;19.38;100.00
57572;BME280;44459;43.522;24.470;2023-06-10T05:47:08;99760.94;;;19.44;100.00
57572;BME280;44459;43.522;24.470;2023-06-10T05:49:34;99758.88;;;19.52;100.00
57572;BME280;44459;43.522;24.470;2023-06-10T05:51:59;99761.13;;;19.63;100.00
57572;BME280;44459;43.522;24.470;2023-06-10T05:54:25;99754.66;;;19.68;100.00
57572;BME280;44459;43.522;24.470;2023-06-10T05:56:51;99758.81;;;19.77;100.00
57572;BME280;44459;43.522;24.470;2023-06-10T05:59:16;99759.31;;;19.86;100.00
57572;BME280;44459;43.522;24.470;2023-06-10T06:01:42;99772.38;;;19.95;100.00
57572;BME280;44459;43.522;24.470;2023-06-10T06:04:07;99760.69;;;19.96;100.00
57572;BME280;44459;43.522;24.470;2023-06-10T06:06:33;99764.69;;;20.08;100.00
57572;BME280;44459;43.522;24.470;2023-06-10T06:08:58;99762.59;;;20.16;100.00
57572;BME280;44459;43.522;24.470;2023-06-10T06:11:24;99748.09;;;20.20;100.00
57572;BME280;44459;43.522;24.470;2023-06-10T06:13:50;99751.34;;;20.30;100.00
57572;BME280;44459;43.522;24.470;2023-06-10T06:16:16;99750.16;;;20.37;100.00
57572;BME280;44459;43.522;24.470;2023-06-10T06:18:43;99755.38;;;20.40;100.00
57572;BME280;44459;43.522;24.470;2023-06-10T06:21:09;99743.84;;;20.38;100.00
57572;BME280;44459;43.522;24.470;2023-06-10T06:23:34;99753.22;;;20.48;100.00
57572;BME280;44459;43.522;24.470;2023-06-10T06:26:00;99751.38;;;20.50;100.00
57572;BME280;44459;43.522;24.470;2023-06-10T06:28:25;99743.38;;;20.48;100.00
57572;BME280;44459;43.522;24.470;2023-06-10T06:30:57;99745.84;;;20.54;100.00
57572;BME280;44459;43.522;24.470;2023-06-10T06:33:22;99744.69;;;20.60;100.00
57572;BME280;44459;43.522;24.470;2023-06-10T06:35:48;99741.25;;;20.56;100.00
57572;BME280;44459;43.522;24.470;2023-06-10T06:38:13;99745.69;;;20.57;100.00
57572;BME280;44459;43.522;24.470;2023-06-10T06:40:38;99744.88;;;20.55;100.00
57572;BME280;44459;43.522;24.470;2023-06-10T06:43:04;99747.50;;;20.57;100.00
57572;BME280;44459;43.522;24.470;2023-06-10T06:45:29;99745.69;;;20.57;100.00
57572;BME280;44459;43.522;24.470;2023-06-10T06:47:55;99739.59;;;20.54;100.00
57572;BME280;44459;43.522;24.470;2023-06-10T06:50:21;99720.59;;;20.38;100.00
57572;BME280;44459;43.522;24.470;2023-06-10T06:52:46;99738.09;;;20.47;100.00
57572;BME280;44459;43.522;24.470;2023-06-10T06:55:12;99731.00;;;20.46;100.00
57572;BME280;44459;43.522;24.470;2023-06-10T06:57:37;99729.94;;;20.50;100.00
57572;BME280;44459;43.522;24.470;2023-06-10T07:00:03;99739.31;;;20.60;100.00
57572;BME280;44459;43.522;24.470;2023-06-10T07:02:29;99727.81;;;20.58;100.00
57572;BME280;44459;43.522;24.470;2023-06-10T07:04:57;99735.31;;;20.70;100.00
57572;BME280;44459;43.522;24.470;2023-06-10T07:07:22;99738.53;;;20.78;100.00
57572;BME280;44459;43.522;24.470;2023-06-10T07:09:48;99730.34;;;20.81;100.00
57572;BME280;44459;43.522;24.470;2023-06-10T07:12:13;99727.47;;;20.86;100.00
57572;BME280;44459;43.522;24.470;2023-06-10T07:14:38;99717.34;;;20.92;100.00
57572;BME280;44459;43.522;24.470;2023-06-10T07:17:04;99734.97;;;20.98;99.94
57572;BME280;44459;43.522;24.470;2023-06-10T07:19:29;99727.94;;;20.95;100.00
57572;BME280;44459;43.522;24.470;2023-06-10T07:21:55;99735.56;;;21.04;99.74
57572;BME280;44459;43.522;24.470;2023-06-10T07:24:20;99736.63;;;21.00;99.66
57572;BME280;44459;43.522;24.470;2023-06-10T07:26:46;99731.28;;;21.00;99.89
57572;BME280;44459;43.522;24.470;2023-06-10T07:29:11;99732.63;;;21.11;98.46
57572;BME280;44459;43.522;24.470;2023-06-10T07:31:38;99740.63;;;21.12;97.67
57572;BME280;44459;43.522;24.470;2023-06-10T07:34:03;99743.25;;;21.14;98.28
57572;BME280;44459;43.522;24.470;2023-06-10T07:36:29;99732.75;;;21.07;97.78
57572;BME280;44459;43.522;24.470;2023-06-10T07:38:55;99735.31;;;21.11;99.25
57572;BME280;44459;43.522;24.470;2023-06-10T07:41:23;99726.19;;;21.15;100.00
57572;BME280;44459;43.522;24.470;2023-06-10T07:43:50;99733.03;;;21.22;99.57
57572;BME280;44459;43.522;24.470;2023-06-10T07:46:20;99743.50;;;21.28;100.00
57572;BME280;44459;43.522;24.470;2023-06-10T07:48:46;99733.56;;;21.30;100.00
57572;BME280;44459;43.522;24.470;2023-06-10T07:51:11;99736.44;;;21.25;100.00
57572;BME280;44459;43.522;24.470;2023-06-10T07:53:37;99731.66;;;21.32;100.00
57572;BME280;44459;43.522;24.470;2023-06-10T07:56:02;99735.81;;;21.39;100.00
57572;BME280;44459;43.522;24.470;2023-06-10T07:58:28;99738.88;;;21.50;100.00
57572;BME280;44459;43.522;24.470;2023-06-10T08:00:54;99742.31;;;21.53;100.00
57572;BME280;44459;43.522;24.470;2023-06-10T08:03:19;99734.03;;;21.58;100.00
57572;BME280;44459;43.522;24.470;2023-06-10T08:05:44;99733.91;;;21.61;98.70
57572;BME280;44459;43.522;24.470;2023-06-10T08:08:10;99741.81;;;21.64;99.35
57572;BME280;44459;43.522;24.470;2023-06-10T08:10:35;99739.66;;;21.72;97.04
57572;BME280;44459;43.522;24.470;2023-06-10T08:13:01;99739.69;;;21.71;98.20
57572;BME280;44459;43.522;24.470;2023-06-10T08:15:26;99745.75;;;21.76;99.07
57572;BME280;44459;43.522;24.470;2023-06-10T08:17:51;99747.31;;;21.80;98.24
57572;BME280;44459;43.522;24.470;2023-06-10T08:20:18;99741.72;;;21.84;98.32
57572;BME280;44459;43.522;24.470;2023-06-10T08:22:43;99736.16;;;21.89;97.68
57572;BME280;44459;43.522;24.470;2023-06-10T08:25:09;99742.91;;;21.97;97.07
57572;BME280;44459;43.522;24.470;2023-06-10T08:27:35;99739.22;;;22.00;97.67
57572;BME280;44459;43.522;24.470;2023-06-10T08:30:00;99748.22;;;22.18;94.18
57572;BME280;44459;43.522;24.470;2023-06-10T08:32:26;99738.25;;;22.20;93.56
57572;BME280;44459;43.522;24.470;2023-06-10T08:34:51;99738.50;;;22.32;96.18
57572;BME280;44459;43.522;24.470;2023-06-10T08:37:17;99731.50;;;22.47;92.56
57572;BME280;44459;43.522;24.470;2023-06-10T08:39:42;99740.22;;;22.52;91.43
57572;BME280;44459;43.522;24.470;2023-06-10T08:44:46;99734.88;;;22.69;90.73
57572;BME280;44459;43.522;24.470;2023-06-10T08:47:15;99734.38;;;22.78;91.57
57572;BME280;44459;43.522;24.470;2023-06-10T08:49:45;99725.81;;;22.87;91.53
57572;BME280;44459;43.522;24.470;2023-06-10T08:52:15;99727.38;;;23.08;87.16
57572;BME280;44459;43.522;24.470;2023-06-10T08:54:43;99723.72;;;23.27;88.44
57572;BME280;44459;43.522;24.470;2023-06-10T08:57:12;99727.34;;;23.43;86.82
57572;BME280;44459;43.522;24.470;2023-06-10T08:59:38;99725.75;;;23.56;85.01
57572;BME280;44459;43.522;24.470;2023-06-10T09:02:05;99717.13;;;23.65;87.03
57572;BME280;44459;43.522;24.470;2023-06-10T09:04:32;99715.69;;;23.91;84.52
57572;BME280;44459;43.522;24.470;2023-06-10T09:06:59;99712.97;;;24.06;82.28
57572;BME280;44459;43.522;24.470;2023-06-10T09:09:28;99713.53;;;24.29;80.22
57572;BME280;44459;43.522;24.470;2023-06-10T09:11:54;99704.00;;;24.37;78.22
57572;BME280;44459;43.522;24.470;2023-06-10T09:14:19;99700.91;;;24.59;80.76
57572;BME280;44459;43.522;24.470;2023-06-10T09:16:45;99696.56;;;24.86;78.34
57572;BME280;44459;43.522;24.470;2023-06-10T09:19:12;99690.25;;;25.01;79.79
57572;BME280;44459;43.522;24.470;2023-06-10T09:21:38;99694.38;;;25.07;74.70
57572;BME280;44459;43.522;24.470;2023-06-10T09:24:04;99699.69;;;24.94;74.72
57572;BME280;44459;43.522;24.470;2023-06-10T09:26:30;99703.09;;;24.82;74.06
57572;BME280;44459;43.522;24.470;2023-06-10T09:29:06;99700.00;;;24.74;74.48
57572;BME280;44459;43.522;24.470;2023-06-10T09:31:34;99691.19;;;24.57;73.45
57572;BME280;44459;43.522;24.470;2023-06-10T09:34:11;99701.09;;;24.56;74.73
57572;BME280;44459;43.522;24.470;2023-06-10T09:36:38;99694.63;;;24.59;74.36
57572;BME280;44459;43.522;24.470;2023-06-10T09:39:04;99693.13;;;24.69;75.26
57572;BME280;44459;43.522;24.470;2023-06-10T09:41:34;99698.19;;;24.75;75.99
57572;BME280;44459;43.522;24.470;2023-06-10T09:44:01;99677.13;;;24.95;75.27
57572;BME280;44459;43.522;24.470;2023-06-10T09:46:31;99686.09;;;25.24;71.89
57572;BME280;44459;43.522;24.470;2023-06-10T09:48:58;99682.72;;;25.49;70.53
57572;BME280;44459;43.522;24.470;2023-06-10T09:51:23;99682.91;;;25.74;69.41
57572;BME280;44459;43.522;24.470;2023-06-10T09:53:51;99686.75;;;25.84;70.83
57572;BME280;44459;43.522;24.470;2023-06-10T09:56:17;99682.06;;;26.00;73.08
57572;BME280;44459;43.522;24.470;2023-06-10T09:58:45;99678.44;;;26.14;70.14
57572;BME280;44459;43.522;24.470;2023-06-10T10:01:13;99693.28;;;26.35;69.00
57572;BME280;44459;43.522;24.470;2023-06-10T10:03:43;99682.16;;;26.40;69.71
57572;BME280;44459;43.522;24.470;2023-06-10T10:06:11;99675.56;;;26.44;62.80
57572;BME280;44459;43.522;24.470;2023-06-10T10:08:36;99672.28;;;26.39;59.45
57572;BME280;44459;43.522;24.470;2023-06-10T10:11:02;99667.97;;;26.36;62.56
57572;BME280;44459;43.522;24.470;2023-06-10T10:13:29;99658.47;;;26.43;64.72
57572;BME280;44459;43.522;24.470;2023-06-10T10:16:00;99664.75;;;26.57;62.34
57572;BME280;44459;43.522;24.470;2023-06-10T10:18:29;99659.69;;;26.77;60.76
57572;BME280;44459;43.522;24.470;2023-06-10T10:20:55;99658.56;;;27.07;57.61
57572;BME280;44459;43.522;24.470;2023-06-10T10:23:31;99657.47;;;27.22;58.85
57572;BME280;44459;43.522;24.470;2023-06-10T10:26:00;99652.16;;;27.33;59.38
57572;BME280;44459;43.522;24.470;2023-06-10T10:28:37;99662.13;;;27.32;57.26
57572;BME280;44459;43.522;24.470;2023-06-10T10:31:08;99655.31;;;27.27;59.54
57572;BME280;44459;43.522;24.470;2023-06-10T10:36:10;99651.38;;;27.56;59.18
57572;BME280;44459;43.522;24.470;2023-06-10T10:38:37;99635.72;;;27.72;57.50
57572;BME280;44459;43.522;24.470;2023-06-10T10:41:04;99639.34;;;27.84;56.53
57572;BME280;44459;43.522;24.470;2023-06-10T10:43:30;99637.47;;;27.73;55.70
57572;BME280;44459;43.522;24.470;2023-06-10T10:46:03;99638.41;;;27.48;55.64
57572;BME280;44459;43.522;24.470;2023-06-10T10:48:37;99643.19;;;27.45;53.72
57572;BME280;44459;43.522;24.470;2023-06-10T10:51:03;99632.97;;;27.48;54.57
57572;BME280;44459;43.522;24.470;2023-06-10T10:53:29;99627.41;;;27.63;56.70
57572;BME280;44459;43.522;24.470;2023-06-10T10:56:15;99618.53;;;27.84;57.05
57572;BME280;44459;43.522;24.470;2023-06-10T10:58:40;99615.00;;;28.08;56.28
57572;BME280;44459;43.522;24.470;2023-06-10T11:01:13;99623.28;;;28.41;58.88
57572;BME280;44459;43.522;24.470;2023-06-10T11:03:44;99622.97;;;28.57;54.05
57572;BME280;44459;43.522;24.470;2023-06-10T11:06:14;99616.69;;;28.67;54.02
57572;BME280;44459;43.522;24.470;2023-06-10T11:11:25;99616.28;;;28.95;51.15
57572;BME280;44459;43.522;24.470;2023-06-10T11:16:28;99601.81;;;29.06;49.82
57572;BME280;44459;43.522;24.470;2023-06-10T11:18:54;99602.34;;;29.11;50.52
57572;BME280;44459;43.522;24.470;2023-06-10T11:21:20;99597.25;;;29.07;51.34
57572;BME280;44459;43.522;24.470;2023-06-10T11:23:49;99597.22;;;28.73;51.67
57572;BME280;44459;43.522;24.470;2023-06-10T11:31:22;99585.72;;;27.87;52.96
57572;BME280;44459;43.522;24.470;2023-06-10T11:33:51;99592.19;;;27.74;53.46
57572;BME280;44459;43.522;24.470;2023-06-10T11:36:17;99580.13;;;27.78;53.58
57572;BME280;44459;43.522;24.470;2023-06-10T11:38:43;99573.41;;;27.83;54.92
57572;BME280;44459;43.522;24.470;2023-06-10T11:41:10;99573.41;;;27.83;52.09
57572;BME280;44459;43.522;24.470;2023-06-10T11:43:36;99574.13;;;27.85;52.72
57572;BME280;44459;43.522;24.470;2023-06-10T11:46:02;99564.38;;;27.83;54.96
57572;BME280;44459;43.522;24.470;2023-06-10T11:48:27;99559.03;;;27.94;53.48
57572;BME280;44459;43.522;24.470;2023-06-10T11:50:56;99554.81;;;28.14;52.26
57572;BME280;44459;43.522;24.470;2023-06-10T11:53:21;99560.53;;;28.33;55.20
57572;BME280;44459;43.522;24.470;2023-06-10T11:55:49;99564.06;;;28.57;52.29
57572;BME280;44459;43.522;24.470;2023-06-10T11:58:17;99555.66;;;28.60;49.48
57572;BME280;44459;43.522;24.470;2023-06-10T12:00:50;99560.59;;;28.55;53.26
57572;BME280;44459;43.522;24.470;2023-06-10T12:03:17;99558.88;;;28.54;54.75
57572;BME280;44459;43.522;24.470;2023-06-10T12:06:03;99548.13;;;28.53;54.33
57572;BME280;44459;43.522;24.470;2023-06-10T12:08:29;99544.94;;;28.59;52.93
57572;BME280;44459;43.522;24.470;2023-06-10T12:10:55;99548.69;;;28.69;52.27
57572;BME280;44459;43.522;24.470;2023-06-10T12:13:22;99550.97;;;28.62;51.58
57572;BME280;44459;43.522;24.470;2023-06-10T12:15:49;99546.88;;;28.45;49.23
57572;BME280;44459;43.522;24.470;2023-06-10T12:18:24;99552.03;;;28.37;49.03
57572;BME280;44459;43.522;24.470;2023-06-10T12:20:50;99555.66;;;28.49;51.86
57572;BME280;44459;43.522;24.470;2023-06-10T12:23:19;99550.84;;;28.53;50.37
57572;BME280;44459;43.522;24.470;2023-06-10T12:25:52;99560.75;;;28.65;49.67
57572;BME280;44459;43.522;24.470;2023-06-10T12:28:26;99552.47;;;28.66;52.03
57572;BME280;44459;43.522;24.470;2023-06-10T12:31:06;99554.25;;;28.78;48.55
57572;BME280;44459;43.522;24.470;2023-06-10T12:33:31;99544.75;;;28.84;46.67
57572;BME280;44459;43.522;24.470;2023-06-10T12:35:57;99554.38;;;28.88;50.75
57572;BME280;44459;43.522;24.470;2023-06-10T12:38:26;99548.06;;;28.98;51.08
57572;BME280;44459;43.522;24.470;2023-06-10T12:41:01;99541.66;;;29.11;46.12
57572;BME280;44459;43.522;24.470;2023-06-10T12:43:30;99534.25;;;29.02;46.71
57572;BME280;44459;43.522;24.470;2023-06-10T12:46:08;99535.75;;;28.94;47.47
57572;BME280;44459;43.522;24.470;2023-06-10T12:48:34;99538.19;;;28.86;47.40
57572;BME280;44459;43.522;24.470;2023-06-10T12:51:00;99532.88;;;28.74;47.15
57572;BME280;44459;43.522;24.470;2023-06-10T12:53:26;99531.72;;;28.65;46.92
57572;BME280;44459;43.522;24.470;2023-06-10T12:55:52;99518.72;;;28.46;44.52
57572;BME280;44459;43.522;24.470;2023-06-10T12:58:19;99513.41;;;28.34;44.02
57572;BME280;44459;43.522;24.470;2023-06-10T13:00:45;99529.06;;;28.30;44.80
57572;BME280;44459;43.522;24.470;2023-06-10T13:03:10;99521.69;;;28.43;44.48
57572;BME280;44459;43.522;24.470;2023-06-10T13:05:37;99518.00;;;28.56;44.59
57572;BME280;44459;43.522;24.470;2023-06-10T13:08:08;99525.78;;;28.60;42.58